Time;durP1;ratioP1;P1;durP2;ratioP2;P2;SDS_P1;SDS_P2;PMS_P1;PMS_P2;Temp;Humidity;BMP_temperature;BMP_pressure;BME280_temperature;BME280_humidity;BME280_pressure;Samples;Min_cycle;Max_cycle;Signal;HPM_P1;HPM_P2
2022/04/02 00:01:08;;;;;;;2.88;2.38;;;;;;;;;;4911148;29;20028;-64
2022/04/02 00:03:34;;;;;;;2.28;1.80;;;;;;;;;;4909978;29;20038;-64
2022/04/02 00:05:59;;;;;;;2.47;2.03;;;;;;;;;;4912075;29;20059;-61
2022/04/02 00:08:25;;;;;;;2.42;1.73;;;;;;;;;;4932862;29;20060;-61
2022/04/02 00:10:51;;;;;;;1.92;1.60;;;;;;;;;;4907851;29;20039;-66
2022/04/02 00:13:17;;;;;;;2.03;1.40;;;;;;;;;;4913183;29;20047;-62
2022/04/02 00:15:42;;;;;;;2.08;1.38;;;;;;;;;;4911647;29;20396;-62
2022/04/02 00:18:08;;;;;;;1.75;1.45;;;;;;;;;;4910176;29;20024;-62
2022/04/02 00:20:33;;;;;;;1.67;1.58;;;;;;;;;;4909385;29;20067;-62
2022/04/02 00:25:42;;;;;;;1.27;1.17;;;;;;;;;;4909625;29;20035;-60
2022/04/02 00:28:08;;;;;;;1.35;1.17;;;;;;;;;;4909472;29;20024;-60
2022/04/02 00:30:33;;;;;;;1.98;1.45;;;;;;;;;;4911189;29;20067;-63
2022/04/02 00:32:59;;;;;;;2.72;1.50;;;;;;;;;;4910441;29;20020;-60
2022/04/02 00:35:25;;;;;;;2.75;1.50;;;;;;;;;;4910117;29;20028;-61
2022/04/02 00:37:50;;;;;;;1.48;1.27;;;;;;;;;;4909893;29;20074;-60
2022/04/02 00:40:16;;;;;;;1.70;1.02;;;;;;;;;;4911527;29;20516;-63
2022/04/02 00:42:41;;;;;;;3.53;1.10;;;;;;;;;;4911429;29;20139;-60
2022/04/02 00:45:07;;;;;;;4.28;1.33;;;;;;;;;;4910862;29;20104;-61
2022/04/02 00:47:32;;;;;;;2.38;1.10;;;;;;;;;;4913858;29;20039;-61
2022/04/02 00:49:58;;;;;;;2.20;1.55;;;;;;;;;;4909202;29;20051;-57
2022/04/02 00:52:27;;;;;;;2.15;1.15;;;;;;;;;;4911530;29;20741;-60
2022/04/02 00:54:53;;;;;;;5.78;1.42;;;;;;;;;;4908955;29;20066;-59
2022/04/02 00:57:19;;;;;;;3.60;1.20;;;;;;;;;;4908757;29;20060;-61
2022/04/02 00:59:45;;;;;;;3.22;1.45;;;;;;;;;;4915201;29;20369;-61
2022/04/02 01:02:10;;;;;;;5.10;1.50;;;;;;;;;;4910532;29;20043;-59
2022/04/02 01:04:36;;;;;;;2.28;1.35;;;;;;;;;;4909151;29;20036;-58
2022/04/02 01:07:01;;;;;;;1.95;1.38;;;;;;;;;;4910067;29;20083;-59
2022/04/02 01:09:27;;;;;;;1.60;1.33;;;;;;;;;;4910990;29;20488;-59
2022/04/02 01:11:54;;;;;;;1.88;1.50;;;;;;;;;;4908403;29;20029;-55
2022/04/02 01:14:20;;;;;;;2.78;1.70;;;;;;;;;;4911522;29;20043;-57
2022/04/02 01:16:46;;;;;;;2.60;1.40;;;;;;;;;;4910571;29;20050;-58
2022/04/02 01:19:11;;;;;;;1.98;1.30;;;;;;;;;;4912328;29;22346;-56
2022/04/02 01:21:37;;;;;;;1.55;1.35;;;;;;;;;;4910763;29;20119;-54
2022/04/02 01:24:03;;;;;;;2.70;1.60;;;;;;;;;;4911397;29;20035;-59
2022/04/02 01:26:28;;;;;;;2.08;1.40;;;;;;;;;;4910299;29;20401;-58
2022/04/02 01:28:58;;;;;;;2.30;1.40;;;;;;;;;;4908874;29;20039;-57
2022/04/02 01:31:25;;;;;;;2.22;1.50;;;;;;;;;;4910278;29;20380;-57
2022/04/02 01:33:51;;;;;;;2.03;1.58;;;;;;;;;;4911114;29;20024;-56
2022/04/02 01:36:18;;;;;;;1.67;1.40;;;;;;;;;;4910887;29;20035;-56
2022/04/02 01:38:44;;;;;;;1.75;1.40;;;;;;;;;;4909466;29;20468;-59
2022/04/02 01:41:09;;;;;;;2.83;1.40;;;;;;;;;;4909774;29;20440;-59
2022/04/02 01:43:35;;;;;;;4.70;1.65;;;;;;;;;;4908368;29;20122;-54
2022/04/02 01:46:02;;;;;;;2.58;1.80;;;;;;;;;;4908903;29;20044;-58
2022/04/02 01:48:28;;;;;;;2.60;1.50;;;;;;;;;;4908309;29;20048;-52
2022/04/02 01:50:54;;;;;;;2.88;1.48;;;;;;;;;;4915071;29;20028;-55
2022/04/02 01:53:21;;;;;;;3.65;1.48;;;;;;;;;;4917628;29;20040;-53
2022/04/02 01:55:46;;;;;;;1.77;1.50;;;;;;;;;;4911200;29;20095;-57
2022/04/02 01:58:12;;;;;;;2.25;1.27;;;;;;;;;;4916901;29;20424;-57
2022/04/02 02:00:38;;;;;;;3.72;1.48;;;;;;;;;;4916741;29;20024;-57
2022/04/02 02:03:04;;;;;;;1.25;0.90;;;;;;;;;;4915957;29;20036;-56
2022/04/02 02:05:29;;;;;;;2.40;1.45;;;;;;;;;;4914561;29;20107;-57
2022/04/02 02:07:55;;;;;;;1.88;1.45;;;;;;;;;;4915184;29;20142;-58
2022/04/02 02:10:21;;;;;;;1.83;1.40;;;;;;;;;;4911852;29;20043;-58
2022/04/02 02:12:46;;;;;;;2.00;1.23;;;;;;;;;;4911568;29;20119;-57
2022/04/02 02:15:22;;;;;;;3.60;1.52;;;;;;;;;;4930644;29;20040;-61
2022/04/02 02:17:48;;;;;;;1.83;1.33;;;;;;;;;;4914093;29;20036;-62
2022/04/02 02:20:16;;;;;;;3.40;1.52;;;;;;;;;;4914736;29;20127;-57
2022/04/02 02:22:42;;;;;;;2.92;1.27;;;;;;;;;;4912852;29;20028;-63
2022/04/02 02:25:10;;;;;;;1.38;1.20;;;;;;;;;;4911130;29;20671;-61
2022/04/02 02:27:35;;;;;;;2.10;1.50;;;;;;;;;;4910722;29;20111;-60
2022/04/02 02:30:05;;;;;;;1.55;1.25;;;;;;;;;;4910454;29;20031;-62
2022/04/02 02:32:36;;;;;;;1.45;1.30;;;;;;;;;;4915321;29;20441;-63
2022/04/02 02:37:50;;;;;;;3.17;1.58;;;;;;;;;;4912627;29;20046;-62
2022/04/02 02:40:15;;;;;;;3.47;1.40;;;;;;;;;;4912382;29;20028;-59
2022/04/02 02:42:41;;;;;;;1.52;1.23;;;;;;;;;;4913346;29;20036;-61
2022/04/02 02:45:07;;;;;;;2.75;1.27;;;;;;;;;;4912138;29;20082;-60
2022/04/02 02:47:32;;;;;;;5.78;1.63;;;;;;;;;;4915174;29;20039;-60
2022/04/02 02:49:58;;;;;;;2.03;1.40;;;;;;;;;;4910569;29;20036;-62
2022/04/02 02:52:23;;;;;;;4.50;1.60;;;;;;;;;;4912808;29;20535;-63
2022/04/02 02:54:49;;;;;;;4.53;1.38;;;;;;;;;;4912487;29;20205;-61
2022/04/02 02:57:14;;;;;;;1.52;1.20;;;;;;;;;;4911121;29;20472;-63
2022/04/02 02:59:40;;;;;;;3.88;1.60;;;;;;;;;;4914178;29;20499;-61
2022/04/02 03:02:05;;;;;;;3.92;1.48;;;;;;;;;;4912707;29;20028;-61
2022/04/02 03:04:31;;;;;;;1.52;1.10;;;;;;;;;;4911609;29;20039;-59
2022/04/02 03:06:57;;;;;;;2.33;1.40;;;;;;;;;;4909886;29;20032;-62
2022/04/02 03:09:23;;;;;;;2.58;1.35;;;;;;;;;;4912789;29;20043;-61
2022/04/02 03:11:49;;;;;;;3.35;1.75;;;;;;;;;;4911120;29;20655;-61
2022/04/02 03:14:15;;;;;;;4.10;1.30;;;;;;;;;;4913138;29;20032;-60
2022/04/02 03:16:41;;;;;;;1.73;1.20;;;;;;;;;;4910461;29;20060;-60
2022/04/02 03:19:06;;;;;;;3.50;1.60;;;;;;;;;;4912456;29;20078;-61
2022/04/02 03:21:32;;;;;;;3.22;1.70;;;;;;;;;;4914086;29;20043;-65
2022/04/02 03:23:57;;;;;;;3.30;1.60;;;;;;;;;;4911948;29;20043;-60
2022/04/02 03:26:26;;;;;;;3.58;1.67;;;;;;;;;;4912602;29;20031;-60
2022/04/02 03:28:51;;;;;;;1.35;1.25;;;;;;;;;;4913526;29;20035;-61
2022/04/02 03:31:17;;;;;;;1.80;1.50;;;;;;;;;;4912556;29;20024;-61
2022/04/02 03:33:42;;;;;;;3.90;1.42;;;;;;;;;;4911609;29;20028;-59
2022/04/02 03:36:10;;;;;;;2.75;1.50;;;;;;;;;;4911338;29;20145;-61
2022/04/02 03:38:36;;;;;;;2.78;1.65;;;;;;;;;;4911053;29;20036;-64
2022/04/02 03:41:04;;;;;;;2.70;1.63;;;;;;;;;;4907634;29;20040;-59
2022/04/02 03:43:30;;;;;;;5.38;1.50;;;;;;;;;;4913527;29;20036;-62
2022/04/02 03:47:08;;;;;;;4.28;1.60;;;;;;;;;;4911245;29;20036;-60
2022/04/02 03:48:41;;;;;;;2.08;1.40;;;;;;;;;;4909720;29;20032;-61
2022/04/02 03:51:06;;;;;;;6.00;1.80;;;;;;;;;;4912799;29;20039;-60
2022/04/02 03:53:31;;;;;;;2.60;1.60;;;;;;;;;;4912155;29;20032;-61
2022/04/02 03:55:57;;;;;;;2.05;1.55;;;;;;;;;;4910670;29;20119;-61
2022/04/02 03:58:22;;;;;;;1.92;1.48;;;;;;;;;;4910612;29;20031;-62
2022/04/02 04:00:47;;;;;;;2.40;1.33;;;;;;;;;;4909964;29;20489;-59
2022/04/02 04:03:13;;;;;;;6.03;1.60;;;;;;;;;;4912391;29;20043;-60
2022/04/02 04:05:38;;;;;;;4.10;1.60;;;;;;;;;;4912223;29;20036;-60
2022/04/02 04:08:04;;;;;;;2.83;1.55;;;;;;;;;;4910335;29;20149;-62
2022/04/02 04:10:30;;;;;;;3.45;1.60;;;;;;;;;;4912296;29;20038;-60
2022/04/02 04:12:55;;;;;;;2.78;1.70;;;;;;;;;;4912152;29;20460;-61
2022/04/02 04:15:20;;;;;;;2.63;1.50;;;;;;;;;;4930818;29;20723;-61
2022/04/02 04:17:46;;;;;;;1.52;1.42;;;;;;;;;;4911453;29;20464;-59
2022/04/02 04:20:11;;;;;;;6.22;1.50;;;;;;;;;;4934150;29;20496;-62
2022/04/02 04:22:37;;;;;;;3.60;1.67;;;;;;;;;;4912149;29;20023;-57
2022/04/02 04:25:03;;;;;;;4.80;1.90;;;;;;;;;;4906578;29;20031;-62
2022/04/02 04:27:28;;;;;;;1.65;1.35;;;;;;;;;;4911620;29;20036;-61
2022/04/02 04:29:54;;;;;;;2.45;1.77;;;;;;;;;;4911804;29;20028;-64
2022/04/02 04:32:19;;;;;;;3.92;1.80;;;;;;;;;;4911283;29;20043;-59
2022/04/02 04:34:44;;;;;;;3.85;1.60;;;;;;;;;;4912182;29;20031;-61
2022/04/02 04:37:10;;;;;;;3.53;1.40;;;;;;;;;;4911009;29;20400;-59
2022/04/02 04:39:35;;;;;;;3.88;1.70;;;;;;;;;;4911518;29;20044;-59
2022/04/02 04:42:01;;;;;;;2.40;1.48;;;;;;;;;;4909826;29;20034;-59
2022/04/02 04:44:26;;;;;;;2.50;1.60;;;;;;;;;;4910618;29;20074;-62
2022/04/02 04:46:52;;;;;;;3.30;1.50;;;;;;;;;;4908772;29;20154;-59
2022/04/02 04:49:17;;;;;;;3.70;2.00;;;;;;;;;;4907581;29;20035;-60
2022/04/02 04:51:42;;;;;;;3.08;1.63;;;;;;;;;;4913199;29;20415;-62
2022/04/02 04:54:08;;;;;;;3.13;1.80;;;;;;;;;;4909502;29;20032;-61
2022/04/02 04:56:34;;;;;;;3.15;1.80;;;;;;;;;;4909089;29;20028;-61
2022/04/02 04:59:00;;;;;;;4.00;1.60;;;;;;;;;;4909278;29;20084;-60
2022/04/02 05:01:25;;;;;;;2.28;1.42;;;;;;;;;;4911863;29;20032;-62
2022/04/02 05:03:51;;;;;;;4.68;1.98;;;;;;;;;;4906597;29;20025;-60
2022/04/02 05:06:16;;;;;;;2.00;1.77;;;;;;;;;;4911757;29;20032;-61
2022/04/02 05:08:42;;;;;;;2.63;2.08;;;;;;;;;;4912117;29;20051;-62
2022/04/02 05:11:10;;;;;;;2.85;1.90;;;;;;;;;;4906578;29;20584;-60
2022/04/02 05:13:35;;;;;;;4.00;1.88;;;;;;;;;;4911516;29;20552;-61
2022/04/02 05:16:01;;;;;;;2.10;1.70;;;;;;;;;;4910607;29;20923;-61
2022/04/02 05:18:27;;;;;;;2.72;1.85;;;;;;;;;;4913750;29;20114;-60
2022/04/02 05:20:52;;;;;;;3.10;1.67;;;;;;;;;;4911822;29;20039;-61
2022/04/02 05:23:18;;;;;;;4.00;1.85;;;;;;;;;;4907940;29;20189;-60
2022/04/02 05:25:43;;;;;;;2.10;1.55;;;;;;;;;;4911541;29;20032;-61
2022/04/02 05:28:09;;;;;;;3.08;1.85;;;;;;;;;;4909183;29;20051;-63
2022/04/02 05:30:39;;;;;;;2.00;1.75;;;;;;;;;;4908992;29;20407;-64
2022/04/02 05:33:05;;;;;;;3.58;2.03;;;;;;;;;;4912618;29;20122;-61
2022/04/02 05:35:30;;;;;;;1.95;1.80;;;;;;;;;;4909064;29;20611;-62
2022/04/02 05:37:56;;;;;;;2.42;1.67;;;;;;;;;;4910807;29;20480;-58
2022/04/02 05:40:21;;;;;;;3.55;1.90;;;;;;;;;;4910658;29;20036;-60
2022/04/02 05:42:47;;;;;;;5.03;1.85;;;;;;;;;;4910556;29;20497;-60
2022/04/02 05:45:14;;;;;;;3.42;1.55;;;;;;;;;;4909156;29;20574;-60
2022/04/02 05:47:43;;;;;;;3.05;2.10;;;;;;;;;;4909752;29;20107;-60
2022/04/02 05:50:10;;;;;;;5.78;2.20;;;;;;;;;;4910980;29;20028;-62
2022/04/02 05:52:36;;;;;;;3.10;2.00;;;;;;;;;;4910647;29;20024;-62
2022/04/02 05:55:01;;;;;;;2.83;1.80;;;;;;;;;;4905653;29;20032;-61
2022/04/02 05:57:28;;;;;;;3.67;1.65;;;;;;;;;;4913893;29;20388;-60
2022/04/02 05:59:54;;;;;;;3.28;2.00;;;;;;;;;;4909714;29;20036;-59
2022/04/02 06:02:19;;;;;;;2.78;1.75;;;;;;;;;;4911064;29;20408;-58
2022/04/02 06:04:45;;;;;;;4.13;1.85;;;;;;;;;;4911744;29;20084;-61
2022/04/02 06:07:11;;;;;;;2.47;1.90;;;;;;;;;;4910904;29;20666;-62
2022/04/02 06:09:36;;;;;;;2.58;1.98;;;;;;;;;;4910364;29;20366;-61
2022/04/02 06:12:02;;;;;;;3.63;2.15;;;;;;;;;;4907860;29;20107;-60
2022/04/02 06:14:27;;;;;;;4.40;2.15;;;;;;;;;;4910713;29;20064;-59
2022/04/02 06:16:53;;;;;;;2.35;1.90;;;;;;;;;;4910251;29;20099;-61
2022/04/02 06:19:19;;;;;;;4.10;1.92;;;;;;;;;;4908746;29;20046;-62
2022/04/02 06:21:45;;;;;;;2.80;1.77;;;;;;;;;;4910733;29;20476;-62
2022/04/02 06:24:10;;;;;;;4.07;2.08;;;;;;;;;;4907045;29;20036;-63
2022/04/02 06:26:35;;;;;;;2.00;1.80;;;;;;;;;;4909686;29;20028;-62
2022/04/02 06:29:01;;;;;;;4.78;1.60;;;;;;;;;;4910319;29;20507;-61
2022/04/02 06:31:26;;;;;;;5.07;2.10;;;;;;;;;;4912003;29;20028;-60
2022/04/02 06:33:52;;;;;;;3.40;2.00;;;;;;;;;;4909025;29;20031;-60
2022/04/02 06:36:17;;;;;;;5.47;2.05;;;;;;;;;;4910241;29;20040;-59
2022/04/02 06:38:43;;;;;;;2.95;2.22;;;;;;;;;;4910779;29;20149;-58
2022/04/02 06:41:08;;;;;;;2.25;1.90;;;;;;;;;;4913576;29;20094;-61
2022/04/02 06:43:34;;;;;;;2.50;1.85;;;;;;;;;;4910381;29;20040;-59
2022/04/02 06:45:59;;;;;;;1.58;1.48;;;;;;;;;;4913978;29;20060;-59
2022/04/02 06:48:24;;;;;;;2.72;2.03;;;;;;;;;;4914974;29;20040;-60
2022/04/02 06:50:50;;;;;;;3.50;1.90;;;;;;;;;;4914676;29;20384;-61
2022/04/02 06:53:15;;;;;;;6.70;1.88;;;;;;;;;;4913492;29;20028;-61
2022/04/02 06:55:40;;;;;;;3.25;2.08;;;;;;;;;;4915086;29;20047;-62
2022/04/02 06:58:06;;;;;;;3.58;1.90;;;;;;;;;;4913581;29;21107;-58
2022/04/02 07:00:31;;;;;;;4.28;1.90;;;;;;;;;;4910090;29;20028;-60
2022/04/02 07:02:57;;;;;;;5.20;1.90;;;;;;;;;;4915247;29;20039;-59
2022/04/02 07:05:22;;;;;;;2.63;1.75;;;;;;;;;;4910983;29;20039;-62
2022/04/02 07:07:51;;;;;;;2.28;1.80;;;;;;;;;;4914658;29;20036;-61
2022/04/02 07:10:17;;;;;;;5.38;1.60;;;;;;;;;;4910799;29;20036;-59
2022/04/02 07:12:42;;;;;;;3.45;1.55;;;;;;;;;;4913759;29;20121;-62
2022/04/02 07:15:09;;;;;;;3.40;2.00;;;;;;;;;;4912188;29;20105;-62
2022/04/02 07:17:34;;;;;;;3.38;1.70;;;;;;;;;;4917741;29;20039;-61
2022/04/02 07:20:01;;;;;;;3.67;1.73;;;;;;;;;;4913743;29;20091;-62
2022/04/02 07:22:27;;;;;;;3.35;1.95;;;;;;;;;;4911921;29;20496;-62
2022/04/02 07:24:56;;;;;;;5.47;1.90;;;;;;;;;;4911896;29;20031;-63
2022/04/02 07:27:23;;;;;;;2.80;1.83;;;;;;;;;;4912851;29;20480;-60
2022/04/02 07:29:51;;;;;;;4.47;1.70;;;;;;;;;;4912100;29;20162;-61
2022/04/02 07:32:17;;;;;;;2.60;1.85;;;;;;;;;;4913520;29;20028;-60
2022/04/02 07:34:42;;;;;;;2.95;1.90;;;;;;;;;;4915632;29;20544;-62
2022/04/02 07:37:20;;;;;;;3.25;1.38;;;;;;;;;;4911237;29;20040;-61
2022/04/02 07:40:05;;;;;;;2.75;1.77;;;;;;;;;;4911055;29;20063;-60
2022/04/02 07:42:43;;;;;;;3.35;1.60;;;;;;;;;;4910998;29;20028;-58
2022/04/02 07:45:16;;;;;;;4.20;1.70;;;;;;;;;;4911169;29;20486;-59
2022/04/02 07:47:57;;;;;;;3.00;1.75;;;;;;;;;;4913402;29;20028;-62
2022/04/02 07:50:25;;;;;;;2.47;1.48;;;;;;;;;;4911740;29;20044;-61
2022/04/02 07:52:53;;;;;;;3.58;1.80;;;;;;;;;;4914378;29;20032;-60
2022/04/02 07:55:19;;;;;;;5.00;1.98;;;;;;;;;;4910511;29;20070;-62
2022/04/02 07:57:47;;;;;;;2.65;1.70;;;;;;;;;;4912355;29;20096;-60
2022/04/02 08:00:16;;;;;;;4.43;1.90;;;;;;;;;;4912636;29;20115;-59
2022/04/02 08:02:43;;;;;;;3.88;1.65;;;;;;;;;;4912276;29;20150;-62
2022/04/02 08:05:11;;;;;;;3.63;1.88;;;;;;;;;;4911336;29;20036;-62
2022/04/02 08:07:52;;;;;;;3.38;1.90;;;;;;;;;;4911463;29;20062;-62
2022/04/02 08:10:20;;;;;;;2.70;1.45;;;;;;;;;;4911860;29;20291;-62
2022/04/02 08:12:46;;;;;;;4.85;1.80;;;;;;;;;;4913403;29;20492;-62
2022/04/02 08:15:16;;;;;;;2.40;1.73;;;;;;;;;;4911847;29;20115;-61
2022/04/02 08:17:44;;;;;;;2.47;1.70;;;;;;;;;;4910356;29;20035;-60
2022/04/02 08:20:10;;;;;;;3.00;1.77;;;;;;;;;;4910730;29;20031;-60
2022/04/02 08:22:37;;;;;;;4.25;1.48;;;;;;;;;;4910987;29;20063;-61
2022/04/02 08:25:03;;;;;;;2.58;1.90;;;;;;;;;;4909418;29;20400;-60
2022/04/02 08:27:57;;;;;;;5.32;1.98;;;;;;;;;;4912346;29;20047;-60
2022/04/02 08:30:28;;;;;;;;;;;;;;;;;;4914543;29;20166;-59
2022/04/02 08:33:23;;;;;;;6.05;2.08;;;;;;;;;;4907559;29;19915;-61
2022/04/02 08:35:57;;;;;;;1.73;1.50;;;;;;;;;;4910790;29;20044;-62
2022/04/02 08:38:57;;;;;;;2.88;1.65;;;;;;;;;;4922184;29;20039;-65
2022/04/02 08:41:41;;;;;;;2.67;1.50;;;;;;;;;;4908946;29;20518;-61
2022/04/02 08:44:06;;;;;;;;;;;;;;;;;;4910563;29;20028;-59
2022/04/02 08:46:35;;;;;;;2.53;1.50;;;;;;;;;;4910651;29;20376;-62
2022/04/02 08:49:26;;;;;;;4.03;1.73;;;;;;;;;;4910994;29;20280;-60
2022/04/02 08:52:13;;;;;;;2.05;1.80;;;;;;;;;;4912547;29;20094;-63
2022/04/02 08:55:03;;;;;;;3.85;1.67;;;;;;;;;;4912329;29;20059;-61
2022/04/02 08:57:32;;;;;;;2.97;1.60;;;;;;;;;;4893290;29;20048;-61
2022/04/02 09:00:09;;;;;;;3.08;1.70;;;;;;;;;;4911724;29;20059;-60
2022/04/02 09:03:19;;;;;;;2.67;1.75;;;;;;;;;;4930889;29;20042;-61
2022/04/02 09:06:24;;;;;;;3.60;1.70;;;;;;;;;;4909383;29;20042;-61
2022/04/02 09:09:06;;;;;;;1.88;1.33;;;;;;;;;;4914655;29;20047;-63
2022/04/02 09:12:10;;;;;;;2.30;1.35;;;;;;;;;;4910286;29;20052;-61
2022/04/02 09:14:59;;;;;;;6.28;1.65;;;;;;;;;;4912988;29;20357;-63
2022/04/02 09:17:35;;;;;;;2.30;1.52;;;;;;;;;;4911119;29;20706;-61
2022/04/02 09:20:27;;;;;;;2.42;1.73;;;;;;;;;;4906031;29;20031;-61
2022/04/02 09:23:34;;;;;;;2.45;1.30;;;;;;;;;;4911920;29;20088;-61
2022/04/02 09:26:31;;;;;;;4.47;1.50;;;;;;;;;;4900986;29;20036;-61
2022/04/02 09:29:16;;;;;;;3.97;1.67;;;;;;;;;;4908434;29;20056;-62
2022/04/02 09:32:09;;;;;;;3.17;1.42;;;;;;;;;;4906858;29;20129;-61
2022/04/02 09:35:27;;;;;;;2.23;1.30;;;;;;;;;;4931908;29;20341;-61
2022/04/02 09:38:10;;;;;;;3.33;1.83;;;;;;;;;;4902079;29;20127;-59
2022/04/02 09:40:46;;;;;;;2.88;1.38;;;;;;;;;;4911518;29;20103;-61
2022/04/02 09:43:29;;;;;;;2.38;1.23;;;;;;;;;;4910225;29;20492;-60
2022/04/02 09:46:34;;;;;;;2.87;1.70;;;;;;;;;;4906506;29;20041;-61
2022/04/02 09:49:15;;;;;;;3.55;1.83;;;;;;;;;;4897882;29;20043;-62
2022/04/02 09:51:44;;;;;;;5.07;2.20;;;;;;;;;;4909784;29;20063;-61
2022/04/02 09:54:48;;;;;;;5.65;1.58;;;;;;;;;;4910521;29;20416;-60
2022/04/02 09:57:27;;;;;;;3.10;1.65;;;;;;;;;;4887740;29;20064;-61
2022/04/02 10:00:07;;;;;;;5.78;2.00;;;;;;;;;;4906182;29;20062;-62
2022/04/02 10:02:54;;;;;;;4.38;1.80;;;;;;;;;;4907682;29;20043;-61
2022/04/02 10:05:27;;;;;;;4.15;1.90;;;;;;;;;;4932665;29;20562;-61
2022/04/02 10:08:11;;;;;;;4.72;1.55;;;;;;;;;;4909669;29;20028;-60
2022/04/02 10:10:38;;;;;;;4.78;1.77;;;;;;;;;;4930353;29;20024;-61
2022/04/02 10:13:03;;;;;;;3.38;1.67;;;;;;;;;;4912661;29;20477;-60
2022/04/02 10:15:31;;;;;;;5.18;1.80;;;;;;;;;;4918184;29;20165;-57
2022/04/02 10:18:02;;;;;;;4.88;1.95;;;;;;;;;;4917209;29;20129;-59
2022/04/02 10:20:29;;;;;;;4.18;1.80;;;;;;;;;;4918998;29;20127;-62
2022/04/02 10:23:14;;;;;;;3.08;1.95;;;;;;;;;;4913417;29;20038;-58
2022/04/02 10:26:07;;;;;;;4.00;2.10;;;;;;;;;;4916114;29;20047;-65
2022/04/02 10:28:51;;;;;;;1.70;1.60;;;;;;;;;;4914845;29;20032;-63
2022/04/02 10:31:36;;;;;;;5.28;1.98;;;;;;;;;;4914093;29;20078;-61
2022/04/02 10:34:09;;;;;;;4.18;2.05;;;;;;;;;;4913882;29;20070;-60
2022/04/02 10:36:39;;;;;;;3.47;1.90;;;;;;;;;;4915734;29;20042;-60
2022/04/02 10:39:08;;;;;;;5.25;1.90;;;;;;;;;;4916890;29;20118;-61
2022/04/02 10:41:38;;;;;;;5.28;2.33;;;;;;;;;;4913948;29;20035;-61
2022/04/02 10:44:10;;;;;;;4.63;1.90;;;;;;;;;;4916695;29;20079;-60
2022/04/02 10:46:40;;;;;;;4.90;1.98;;;;;;;;;;4915348;29;20041;-62
2022/04/02 10:49:10;;;;;;;8.77;2.53;;;;;;;;;;4916589;29;20031;-61
2022/04/02 10:51:40;;;;;;;4.47;2.00;;;;;;;;;;4913494;29;20373;-61
2022/04/02 10:54:08;;;;;;;7.05;2.13;;;;;;;;;;4913249;29;20129;-63
2022/04/02 10:56:40;;;;;;;5.47;2.20;;;;;;;;;;4914414;29;20164;-61
2022/04/02 10:59:08;;;;;;;5.53;2.23;;;;;;;;;;4912022;29;20496;-60
2022/04/02 11:01:37;;;;;;;4.53;1.80;;;;;;;;;;4910808;29;20115;-58
2022/04/02 11:04:14;;;;;;;2.97;2.13;;;;;;;;;;4913819;29;20060;-60
2022/04/02 11:06:49;;;;;;;4.88;2.42;;;;;;;;;;4915364;29;20396;-62
2022/04/02 11:09:40;;;;;;;2.88;1.70;;;;;;;;;;4914399;29;20043;-61
2022/04/02 11:12:18;;;;;;;5.05;2.10;;;;;;;;;;4935667;29;20556;-60
2022/04/02 11:14:50;;;;;;;4.63;2.10;;;;;;;;;;4913807;29;20056;-62
2022/04/02 11:17:46;;;;;;;3.83;2.00;;;;;;;;;;4912833;29;20052;-60
2022/04/02 11:20:15;;;;;;;4.00;1.90;;;;;;;;;;4903209;29;20100;-61
2022/04/02 11:22:51;;;;;;;5.55;2.38;;;;;;;;;;4908891;29;20445;-64
2022/04/02 11:25:21;;;;;;;7.15;2.22;;;;;;;;;;4907997;29;20068;-62
2022/04/02 11:27:50;;;;;;;4.60;2.15;;;;;;;;;;4909419;29;20396;-60
2022/04/02 11:30:17;;;;;;;4.47;2.30;;;;;;;;;;4915178;29;20524;-60
2022/04/02 11:32:45;;;;;;;10.40;2.42;;;;;;;;;;4909643;29;20032;-65
2022/04/02 11:35:22;;;;;;;4.32;3.25;;;;;;;;;;4911464;29;20028;-62
2022/04/02 11:37:56;;;;;;;4.95;2.20;;;;;;;;;;4909288;29;20035;-60
2022/04/02 11:40:26;;;;;;;4.03;2.13;;;;;;;;;;4911693;29;20036;-59
2022/04/02 11:42:51;;;;;;;2.72;2.05;;;;;;;;;;4911095;29;20028;-63
2022/04/02 11:45:19;;;;;;;3.55;2.15;;;;;;;;;;4914193;29;20382;-60
2022/04/02 11:47:50;;;;;;;3.67;1.95;;;;;;;;;;4912506;29;20032;-62
2022/04/02 11:50:27;;;;;;;3.55;1.60;;;;;;;;;;4914587;29;20028;-60
2022/04/02 11:52:58;;;;;;;3.58;2.33;;;;;;;;;;4911134;29;20044;-59
2022/04/02 11:55:26;;;;;;;4.13;2.08;;;;;;;;;;4914214;29;20032;-60
2022/04/02 11:58:06;;;;;;;2.80;1.92;;;;;;;;;;4910886;29;20254;-61
2022/04/02 12:00:37;;;;;;;4.75;1.95;;;;;;;;;;4911655;29;20091;-62
2022/04/02 12:03:06;;;;;;;3.65;1.80;;;;;;;;;;4912975;29;20024;-61
2022/04/02 12:05:45;;;;;;;4.25;2.28;;;;;;;;;;4912386;29;20036;-60
2022/04/02 12:08:25;;;;;;;6.15;2.20;;;;;;;;;;4910097;29;20514;-60
2022/04/02 12:10:51;;;;;;;6.82;2.58;;;;;;;;;;4911542;29;20488;-62
2022/04/02 12:13:16;;;;;;;5.50;2.30;;;;;;;;;;4912756;29;20187;-61
2022/04/02 12:15:59;;;;;;;3.67;1.83;;;;;;;;;;4912031;29;20051;-63
2022/04/02 12:18:26;;;;;;;4.03;1.90;;;;;;;;;;4911490;29;20046;-60
2022/04/02 12:21:09;;;;;;;4.03;1.90;;;;;;;;;;4911737;29;20031;-63
2022/04/02 12:23:36;;;;;;;;;;;;;;;;;;4911940;29;20388;-59
2022/04/02 12:26:03;;;;;;;2.20;1.52;;;;;;;;;;4911135;29;19926;-60
2022/04/02 12:28:29;;;;;;;2.63;1.75;;;;;;;;;;4910344;29;20047;-62
2022/04/02 12:31:06;;;;;;;2.70;1.70;;;;;;;;;;4911088;29;20075;-61
2022/04/02 12:33:32;;;;;;;2.95;1.85;;;;;;;;;;4908977;29;20039;-60
2022/04/02 12:36:09;;;;;;;2.92;1.60;;;;;;;;;;4912387;29;20102;-60
2022/04/02 12:38:37;;;;;;;4.35;1.98;;;;;;;;;;4911714;29;20068;-62
2022/04/02 12:41:04;;;;;;;2.47;2.03;;;;;;;;;;4911078;29;20120;-65
2022/04/02 12:43:34;;;;;;;5.22;2.10;;;;;;;;;;4912739;29;20043;-61
2022/04/02 12:46:01;;;;;;;2.72;1.83;;;;;;;;;;4913533;29;20361;-58
2022/04/02 12:48:40;;;;;;;2.83;1.75;;;;;;;;;;4913268;29;20036;-64
2022/04/02 12:51:11;;;;;;;2.47;1.60;;;;;;;;;;4910200;29;20038;-62
2022/04/02 12:53:39;;;;;;;2.38;1.60;;;;;;;;;;4910041;29;20028;-60
2022/04/02 12:56:07;;;;;;;2.70;1.77;;;;;;;;;;4911092;29;20035;-62
2022/04/02 12:58:52;;;;;;;2.30;1.60;;;;;;;;;;4911201;29;20047;-61
2022/04/02 13:01:20;;;;;;;6.78;1.63;;;;;;;;;;4909516;29;20031;-61
2022/04/02 13:04:08;;;;;;;2.05;1.60;;;;;;;;;;4935235;29;20126;-61
2022/04/02 13:06:44;;;;;;;3.97;1.63;;;;;;;;;;4910407;29;20040;-60
2022/04/02 13:09:15;;;;;;;4.28;1.50;;;;;;;;;;4910703;29;20577;-62
2022/04/02 13:11:59;;;;;;;5.97;1.92;;;;;;;;;;4906989;29;20032;-60
2022/04/02 13:14:35;;;;;;;4.00;1.83;;;;;;;;;;4911169;29;20058;-62
2022/04/02 13:17:09;;;;;;;2.92;1.77;;;;;;;;;;4911378;29;20028;-61
2022/04/02 13:22:41;;;;;;;1.52;1.25;;;;;;;;;;4910343;29;20054;-60
2022/04/02 13:25:14;;;;;;;2.03;1.50;;;;;;;;;;4907403;29;20091;-60
2022/04/02 13:28:11;;;;;;;5.03;1.80;;;;;;;;;;4911461;29;20028;-60
2022/04/02 13:30:41;;;;;;;3.28;1.40;;;;;;;;;;4910296;29;20401;-61
2022/04/02 13:33:43;;;;;;;3.88;1.60;;;;;;;;;;4911899;29;20027;-60
2022/04/02 13:36:41;;;;;;;3.83;1.50;;;;;;;;;;4909145;29;20024;-61
2022/04/02 13:39:11;;;;;;;2.75;1.70;;;;;;;;;;4909427;29;20118;-63
2022/04/02 13:41:41;;;;;;;4.57;1.58;;;;;;;;;;4910312;29;20028;-63
2022/04/02 13:44:19;;;;;;;2.83;1.50;;;;;;;;;;4910862;29;20020;-62
2022/04/02 13:46:49;;;;;;;2.92;1.70;;;;;;;;;;4911141;29;20028;-60
2022/04/02 13:49:28;;;;;;;3.22;1.45;;;;;;;;;;4913542;29;20387;-60
2022/04/02 13:51:59;;;;;;;5.47;1.55;;;;;;;;;;4911115;29;20496;-62
2022/04/02 13:54:29;;;;;;;1.65;1.38;;;;;;;;;;4911965;29;20039;-62
2022/04/02 13:57:06;;;;;;;1.60;1.40;;;;;;;;;;4914290;29;20032;-61
2022/04/02 13:59:56;;;;;;;2.88;1.48;;;;;;;;;;4911857;29;20064;-63
2022/04/02 14:02:27;;;;;;;4.13;1.73;;;;;;;;;;4931362;29;20111;-62
2022/04/02 14:05:03;;;;;;;5.18;1.73;;;;;;;;;;4914273;29;20032;-61
2022/04/02 14:07:31;;;;;;;5.78;1.65;;;;;;;;;;4911483;29;20388;-58
2022/04/02 14:10:08;;;;;;;2.38;1.70;;;;;;;;;;4914609;29;20032;-60
2022/04/02 14:12:41;;;;;;;4.10;1.50;;;;;;;;;;4914537;29;20377;-61
2022/04/02 14:15:09;;;;;;;3.20;1.67;;;;;;;;;;4917338;29;20495;-62
2022/04/02 14:17:43;;;;;;;2.28;2.00;;;;;;;;;;4915333;29;20039;-62
2022/04/02 14:20:11;;;;;;;6.47;1.70;;;;;;;;;;4914385;29;20024;-59
2022/04/02 14:22:54;;;;;;;3.13;1.50;;;;;;;;;;4914540;29;20175;-59
2022/04/02 14:25:35;;;;;;;3.42;1.65;;;;;;;;;;4914753;29;20030;-58
2022/04/02 14:28:26;;;;;;;1.85;1.58;;;;;;;;;;4913039;29;20028;-62
2022/04/02 14:30:57;;;;;;;4.10;1.50;;;;;;;;;;4915201;29;20028;-61
2022/04/02 14:33:52;;;;;;;2.47;1.40;;;;;;;;;;4914505;29;20446;-61
2022/04/02 14:36:52;;;;;;;2.67;1.88;;;;;;;;;;4914369;29;20040;-61
2022/04/02 14:39:57;;;;;;;3.95;1.35;;;;;;;;;;4915359;29;20070;-59
2022/04/02 14:42:58;;;;;;;1.95;1.35;;;;;;;;;;4913415;29;20077;-61
2022/04/02 14:45:41;;;;;;;2.70;1.50;;;;;;;;;;4913900;29;20032;-63
2022/04/02 14:48:07;;;;;;;;;;;;;;;;;;4914190;29;20028;-61
2022/04/02 14:50:50;;;;;;;3.73;1.70;;;;;;;;;;4912414;29;19963;-61
2022/04/02 14:53:44;;;;;;;2.75;1.70;;;;;;;;;;4911460;29;20295;-59
2022/04/02 14:56:40;;;;;;;4.60;1.75;;;;;;;;;;4910496;29;20032;-61
2022/04/02 14:59:39;;;;;;;3.38;1.88;;;;;;;;;;4909684;29;20476;-61
2022/04/02 15:02:41;;;;;;;4.32;1.80;;;;;;;;;;4914575;29;20032;-61
2022/04/02 15:05:38;;;;;;;5.85;2.05;;;;;;;;;;4926812;29;20036;-62
2022/04/02 15:08:21;;;;;;;6.95;2.17;;;;;;;;;;4911916;29;20079;-61
2022/04/02 15:10:49;;;;;;;3.58;1.80;;;;;;;;;;4917006;29;20056;-61
2022/04/02 15:13:26;;;;;;;3.47;1.80;;;;;;;;;;4917209;29;20040;-61
2022/04/02 15:15:53;;;;;;;5.53;1.98;;;;;;;;;;4915916;29;20023;-63
2022/04/02 15:18:27;;;;;;;7.80;2.10;;;;;;;;;;4916041;29;21535;-62